CMA CGM Hugo — DCTA2 — position and weather

sailwx.info

Track history (hours):
 
Tides and Currents Weather Stations Pressure Air Temp Water Temp Dewpoint Dewpoint Depression Visibility Wind Speed Wind Dir Waves Ship Positions

CMA CGM Hugo

Last reported at 2015-Aug-01 06:00 UTC. Time now 2015-Aug-01 11:48 UTC.
Position S 28°42' W 032°42'.

Length 334.1 m; beam 42.8 m; draft 14.5 m.

Type: Ship. MMSI: 211831000.

Wind from 140 at 12 knots

Barometer 1024.0 mb
Air temperature 17.0 ° C
Visibility: greater than 10.8 NM
Water temperature 20.0 ° C

Date/timePositionNaut miles runAvg speedWind from/ knotsBaromVisibWave heightAir tempDewpointWater temp
2015-Aug-01 06:00S 28°42' W 032°42'67917.5 140 / 121024.010.8 17.0 20.0
2015-Jul-30 15:13S 24°59' W 044°41'1317.3
2015-Jul-30 14:28S 24°54' W 044°54'1617.5
2015-Jul-30 13:33S 24°48' W 045°11'1717.4
2015-Jul-30 12:33S 24°42' W 045°28'1817.3
2015-Jul-30 11:32S 24°35' W 045°46'1717.4
2015-Jul-30 10:33S 24°28' W 046°03'1817.8
2015-Jul-30 09:33S 24°20' W 046°21'1615.7
2015-Jul-30 08:33S 24°04' W 046°22'7 7.2
2015-Jul-30 07:34S 23°58' W 046°18'0 0.2
2015-Jul-30 06:22S 23°58' W 046°18'0 0.0
2015-Jul-30 04:30S 23°58' W 046°18'0 0.0
2015-Jul-30 03:30S 23°58' W 046°18'0 0.0
2015-Jul-30 02:32S 23°58' W 046°18'0 0.0
2015-Jul-30 01:32S 23°58' W 046°18'0 0.0
2015-Jul-30 00:29S 23°58' W 046°18'0 0.0
2015-Jul-29 23:31S 23°58' W 046°18'0 0.0
2015-Jul-29 22:28S 23°58' W 046°18'0 0.0
2015-Jul-29 21:33S 23°58' W 046°18'0 0.0
2015-Jul-29 20:33S 23°58' W 046°18'0 0.0
2015-Jul-29 19:32S 23°58' W 046°18'0 0.0
2015-Jul-29 18:32S 23°58' W 046°18'0 0.0
2015-Jul-29 17:31S 23°58' W 046°18'0 0.0
2015-Jul-29 16:28S 23°58' W 046°18'0 0.0
2015-Jul-29 15:31S 23°58' W 046°18'0 0.0
2015-Jul-29 14:24S 23°58' W 046°18'0 0.0
2015-Jul-29 13:30S 23°58' W 046°18'0 0.0
2015-Jul-29 12:29S 23°58' W 046°18'0 0.0
2015-Jul-29 10:31S 23°58' W 046°18'0 0.0
2015-Jul-29 09:28S 23°58' W 046°18'0 0.0
2015-Jul-29 08:31S 23°58' W 046°18'0 0.0
2015-Jul-29 07:33S 23°58' W 046°18'0 0.0
2015-Jul-29 05:21S 23°58' W 046°18'3 3.2
2015-Jul-29 04:33S 23°60' W 046°20'10 9.7
2015-Jul-29 03:33S 24°09' W 046°24'9 9.2
2015-Jul-29 02:34S 24°17' W 046°28'1 0.9
2015-Jul-29 01:34S 24°17' W 046°27'1 0.9
2015-Jul-29 00:33S 24°17' W 046°26'1 0.8
2015-Jul-28 23:34S 24°18' W 046°25'1 0.7
2015-Jul-28 22:33S 24°18' W 046°24'0 0.4
2015-Jul-28 21:33S 24°18' W 046°25'10 9.8
2015-Jul-28 20:34S 24°27' W 046°30'1414.1
2015-Jul-28 19:33S 24°38' W 046°40'1714.3
2015-Jul-28 18:22S 24°48' W 046°55'4014.2
2015-Jul-28 15:34S 25°11' W 047°31'1414.2
2015-Jul-28 14:33S 25°19' W 047°44'123 2.8
2015-Jul-26 18:33S 27°20' W 048°09'  
Track history (hours):
 
Tides and Currents Weather Stations Pressure Air Temp Water Temp Dewpoint Dewpoint Depression Visibility Wind Speed Wind Dir Waves Ship Positions

CMA CGM Hugo

Last reported at 2015-Aug-01 06:00 UTC. Time now 2015-Aug-01 11:48 UTC.
Position S 28°42' W 032°42'.

Length 334.1 m; beam 42.8 m; draft 14.5 m.

Type: Ship. MMSI: 211831000.

Wind from 140 at 12 knots

Barometer 1024.0 mb
Air temperature 17.0 ° C
Visibility: greater than 10.8 NM
Water temperature 20.0 ° C

Date/timePositionNaut miles runAvg speedWind from/ knotsBaromVisibWave heightAir tempDewpointWater temp
2015-Aug-01 06:00S 28°42' W 032°42'67917.5 140 / 121024.010.8 17.0 20.0
2015-Jul-30 15:13S 24°59' W 044°41'1317.3
2015-Jul-30 14:28S 24°54' W 044°54'1617.5
2015-Jul-30 13:33S 24°48' W 045°11'1717.4
2015-Jul-30 12:33S 24°42' W 045°28'1817.3
2015-Jul-30 11:32S 24°35' W 045°46'1717.4
2015-Jul-30 10:33S 24°28' W 046°03'1817.8
2015-Jul-30 09:33S 24°20' W 046°21'1615.7
2015-Jul-30 08:33S 24°04' W 046°22'7 7.2
2015-Jul-30 07:34S 23°58' W 046°18'0 0.2
2015-Jul-30 06:22S 23°58' W 046°18'0 0.0
2015-Jul-30 04:30S 23°58' W 046°18'0 0.0
2015-Jul-30 03:30S 23°58' W 046°18'0 0.0
2015-Jul-30 02:32S 23°58' W 046°18'0 0.0
2015-Jul-30 01:32S 23°58' W 046°18'0 0.0
2015-Jul-30 00:29S 23°58' W 046°18'0 0.0
2015-Jul-29 23:31S 23°58' W 046°18'0 0.0
2015-Jul-29 22:28S 23°58' W 046°18'0 0.0
2015-Jul-29 21:33S 23°58' W 046°18'0 0.0
2015-Jul-29 20:33S 23°58' W 046°18'0 0.0
2015-Jul-29 19:32S 23°58' W 046°18'0 0.0
2015-Jul-29 18:32S 23°58' W 046°18'0 0.0
2015-Jul-29 17:31S 23°58' W 046°18'0 0.0
2015-Jul-29 16:28S 23°58' W 046°18'0 0.0
2015-Jul-29 15:31S 23°58' W 046°18'0 0.0
2015-Jul-29 14:24S 23°58' W 046°18'0 0.0
2015-Jul-29 13:30S 23°58' W 046°18'0 0.0
2015-Jul-29 12:29S 23°58' W 046°18'0 0.0
2015-Jul-29 10:31S 23°58' W 046°18'0 0.0
2015-Jul-29 09:28S 23°58' W 046°18'0 0.0
2015-Jul-29 08:31S 23°58' W 046°18'0 0.0
2015-Jul-29 07:33S 23°58' W 046°18'0 0.0
2015-Jul-29 05:21S 23°58' W 046°18'3 3.2
2015-Jul-29 04:33S 23°60' W 046°20'10 9.7
2015-Jul-29 03:33S 24°09' W 046°24'9 9.2
2015-Jul-29 02:34S 24°17' W 046°28'1 0.9
2015-Jul-29 01:34S 24°17' W 046°27'1 0.9
2015-Jul-29 00:33S 24°17' W 046°26'1 0.8
2015-Jul-28 23:34S 24°18' W 046°25'1 0.7
2015-Jul-28 22:33S 24°18' W 046°24'0 0.4
2015-Jul-28 21:33S 24°18' W 046°25'10 9.8
2015-Jul-28 20:34S 24°27' W 046°30'1414.1
2015-Jul-28 19:33S 24°38' W 046°40'1714.3
2015-Jul-28 18:22S 24°48' W 046°55'4014.2
2015-Jul-28 15:34S 25°11' W 047°31'1414.2
2015-Jul-28 14:33S 25°19' W 047°44'123 2.8
2015-Jul-26 18:33S 27°20' W 048°09'  

Dump ship's entire track history